createdAt,value
2019-03-31T00:01:49.316Z,4.18
2019-03-31T00:04:21.815Z,4.14
2019-03-31T00:06:54.418Z,4.06
2019-03-31T00:09:27.098Z,3.99
2019-03-31T00:11:59.808Z,3.92
2019-03-31T00:14:32.371Z,3.85
2019-03-31T00:17:05.051Z,3.78
2019-03-31T00:19:37.836Z,3.73
2019-03-31T00:22:10.541Z,3.68
2019-03-31T00:24:43.003Z,3.65
2019-03-31T00:27:26.051Z,3.58
2019-03-31T00:29:58.636Z,3.53
2019-03-31T00:32:38.613Z,3.54
2019-03-31T00:35:11.262Z,3.50
2019-03-31T00:37:46.872Z,3.45
2019-03-31T00:40:19.353Z,3.43
2019-03-31T00:42:52.073Z,3.38
2019-03-31T00:45:24.751Z,3.38
2019-03-31T00:48:07.954Z,3.36
2019-03-31T00:50:40.601Z,3.36
2019-03-31T00:53:13.213Z,3.34
2019-03-31T00:55:45.775Z,3.29
2019-03-31T00:58:27.791Z,3.24
2019-03-31T01:01:19.917Z,3.20
2019-03-31T01:03:53.601Z,3.18
2019-03-31T01:06:26.977Z,3.15
2019-03-31T01:09:01.601Z,3.16
2019-03-31T01:11:34.784Z,3.16
2019-03-31T01:14:08.761Z,3.10
2019-03-31T01:16:41.388Z,3.02
2019-03-31T01:19:14.974Z,2.89
2019-03-31T01:21:47.837Z,2.78
2019-03-31T01:24:21.452Z,2.70
2019-03-31T01:26:53.688Z,2.68
2019-03-31T01:29:30.112Z,2.72
2019-03-31T01:32:02.925Z,2.74
2019-03-31T01:34:39.507Z,2.80
2019-03-31T01:37:12.133Z,2.85
2019-03-31T01:39:49.123Z,2.87
2019-03-31T01:42:21.925Z,2.88
2019-03-31T01:45:01.877Z,2.85
2019-03-31T01:47:34.306Z,2.83
2019-03-31T01:50:13.201Z,2.81
2019-03-31T01:52:45.632Z,2.74
2019-03-31T01:55:21.005Z,2.71
2019-03-31T01:57:53.608Z,2.70
2019-03-31T02:00:37.091Z,2.63
2019-03-31T02:03:09.827Z,2.55
2019-03-31T02:05:42.360Z,2.48
2019-03-31T02:08:15.059Z,2.44
2019-03-31T02:10:47.716Z,2.41
2019-03-31T02:13:20.323Z,2.37
2019-03-31T02:16:00.429Z,2.28
2019-03-31T02:18:32.926Z,2.21
2019-03-31T02:21:15.761Z,2.18
2019-03-31T02:23:48.164Z,2.15
2019-03-31T02:26:23.629Z,2.16
2019-03-31T02:28:56.120Z,2.11
2019-03-31T02:31:35.935Z,2.08
2019-03-31T02:34:08.506Z,2.05
2019-03-31T02:36:41.058Z,2.03
2019-03-31T02:39:13.406Z,1.98
2019-03-31T02:41:56.933Z,1.96
2019-03-31T02:44:37.486Z,1.92
2019-03-31T02:47:16.547Z,1.86
2019-03-31T02:49:49.358Z,1.83
2019-03-31T02:52:23.047Z,1.85
2019-03-31T02:54:56.033Z,1.83
2019-03-31T02:57:28.821Z,1.84
2019-03-31T03:00:03.117Z,1.85
2019-03-31T03:02:42.181Z,1.76
2019-03-31T03:05:19.857Z,1.69
2019-03-31T03:07:47.900Z,1.62
2019-03-31T03:10:21.285Z,1.58
2019-03-31T03:13:03.401Z,1.58
2019-03-31T03:15:46.811Z,1.62
2019-03-31T03:18:19.227Z,1.60
2019-03-31T03:20:51.692Z,1.58
2019-03-31T03:23:24.275Z,1.61
2019-03-31T03:25:57.109Z,1.57
2019-03-31T03:28:29.533Z,1.53
2019-03-31T03:31:02.237Z,1.47
2019-03-31T03:33:34.631Z,1.40
2019-03-31T03:36:07.233Z,1.33
2019-03-31T03:38:39.567Z,1.28
2019-03-31T03:41:12.266Z,1.23
2019-03-31T03:43:54.861Z,1.17
2019-03-31T03:46:19.089Z,1.13
2019-03-31T03:48:51.616Z,1.11
2019-03-31T03:51:24.191Z,1.08
2019-03-31T03:53:56.584Z,1.05
2019-03-31T03:56:29.364Z,1.08
2019-03-31T03:59:01.923Z,1.09
2019-03-31T04:01:34.686Z,1.09
2019-03-31T04:04:07.422Z,1.09
2019-03-31T04:06:39.689Z,1.07
2019-03-31T04:09:12.113Z,1.04
2019-03-31T04:11:44.569Z,1.03
2019-03-31T04:14:17.068Z,1.00
2019-03-31T04:16:49.680Z,0.95
2019-03-31T04:19:22.166Z,0.89
2019-03-31T04:21:54.762Z,0.90
2019-03-31T04:24:27.457Z,0.91
2019-03-31T04:27:00.037Z,0.91
2019-03-31T04:29:33.119Z,0.92
2019-03-31T04:32:05.929Z,0.92
2019-03-31T04:34:38.524Z,0.92
2019-03-31T04:37:14.478Z,0.89
2019-03-31T04:39:47.041Z,0.85
2019-03-31T04:42:26.963Z,0.86
2019-03-31T04:44:59.443Z,0.82
2019-03-31T04:47:32.190Z,0.73
2019-03-31T04:50:05.129Z,0.66
2019-03-31T04:52:45.176Z,0.61
2019-03-31T04:55:18.137Z,0.58
2019-03-31T04:57:54.825Z,0.56
2019-03-31T05:00:27.413Z,0.52
2019-03-31T05:03:02.780Z,0.51
2019-03-31T05:05:35.398Z,0.54
2019-03-31T05:08:18.445Z,0.58
2019-03-31T05:10:51.030Z,0.62
2019-03-31T05:13:23.504Z,0.69
2019-03-31T05:15:56.013Z,0.72
2019-03-31T05:18:40.556Z,0.74
2019-03-31T05:21:13.076Z,0.78
2019-03-31T05:23:51.604Z,0.79
2019-03-31T05:26:24.164Z,0.80
2019-03-31T05:28:59.861Z,0.94
2019-03-31T05:31:32.560Z,1.86
2019-03-31T05:34:18.370Z,2.70
2019-03-31T05:36:39.668Z,3.31
2019-03-31T05:39:21.072Z,3.89
2019-03-31T05:41:53.664Z,4.44
2019-03-31T05:44:29.434Z,4.93
2019-03-31T05:47:01.968Z,5.44
2019-03-31T05:49:40.339Z,5.83
2019-03-31T05:52:12.978Z,6.18
2019-03-31T05:54:52.976Z,6.66
2019-03-31T05:57:25.576Z,6.97
2019-03-31T05:59:58.306Z,7.30
2019-03-31T06:02:30.934Z,7.83
2019-03-31T06:05:11.450Z,7.46
2019-03-31T06:07:44.065Z,7.73
2019-03-31T06:10:19.758Z,8.08
2019-03-31T06:12:52.290Z,8.52
2019-03-31T06:15:27.792Z,9.19
2019-03-31T06:18:00.065Z,9.21
2019-03-31T06:20:38.592Z,9.30
2019-03-31T06:23:11.218Z,9.27
2019-03-31T06:25:51.242Z,9.83
2019-03-31T06:28:23.790Z,10.40
2019-03-31T06:31:00.343Z,10.52
2019-03-31T06:33:32.800Z,11.40
2019-03-31T06:36:09.440Z,12.03
2019-03-31T06:38:41.973Z,12.01
2019-03-31T06:41:22.668Z,12.36
2019-03-31T06:43:55.100Z,12.44
2019-03-31T06:46:35.356Z,12.80
2019-03-31T06:49:07.765Z,13.45
2019-03-31T06:51:48.754Z,13.67
2019-03-31T06:54:21.382Z,14.08
2019-03-31T06:56:56.080Z,14.26
2019-03-31T06:59:29.623Z,14.17
2019-03-31T07:02:05.125Z,13.18
2019-03-31T07:04:37.703Z,13.90
2019-03-31T07:07:16.475Z,14.61
2019-03-31T07:09:49.142Z,15.33
2019-03-31T07:12:24.807Z,15.58
2019-03-31T07:14:57.793Z,16.06
2019-03-31T07:17:38.108Z,16.52
2019-03-31T07:20:12.416Z,16.95
2019-03-31T07:22:48.174Z,17.01
2019-03-31T07:25:21.324Z,17.68
2019-03-31T07:27:54.593Z,17.74
2019-03-31T07:30:35.113Z,17.98
2019-03-31T07:33:07.969Z,17.07
2019-03-31T07:35:41.708Z,17.61
2019-03-31T07:38:14.921Z,18.47
2019-03-31T07:40:47.659Z,18.73
2019-03-31T07:43:23.908Z,19.39
2019-03-31T07:45:56.804Z,19.87
2019-03-31T07:48:36.203Z,20.23
2019-03-31T07:51:09.602Z,20.53
2019-03-31T07:53:51.489Z,20.81
2019-03-31T07:56:24.557Z,21.25
2019-03-31T07:58:57.628Z,21.22
2019-03-31T08:01:30.107Z,21.00
2019-03-31T08:04:05.458Z,20.98
2019-03-31T08:06:38.080Z,21.53
2019-03-31T08:09:18.877Z,22.28
2019-03-31T08:11:51.485Z,22.01
2019-03-31T08:14:35.287Z,22.61
2019-03-31T08:17:08.577Z,22.66
2019-03-31T08:19:45.228Z,23.34
2019-03-31T08:22:17.685Z,23.33
2019-03-31T08:24:52.292Z,23.91
2019-03-31T08:27:24.850Z,23.97
2019-03-31T08:30:00.749Z,23.96
2019-03-31T08:32:32.158Z,24.46
2019-03-31T08:35:20.072Z,25.08
2019-03-31T08:37:52.973Z,25.69
2019-03-31T08:40:29.199Z,24.94
2019-03-31T08:43:03.476Z,24.52
2019-03-31T08:45:36.759Z,25.90
2019-03-31T08:48:10.368Z,25.98
2019-03-31T08:50:43.000Z,26.51
2019-03-31T08:53:15.549Z,26.78
2019-03-31T08:55:54.918Z,27.04
2019-03-31T08:58:27.341Z,26.36
2019-03-31T09:01:08.607Z,26.37
2019-03-31T09:03:42.158Z,26.93
2019-03-31T09:06:14.831Z,26.98
2019-03-31T09:08:47.405Z,27.20
2019-03-31T09:11:20.550Z,26.93
2019-03-31T09:13:53.938Z,26.88
2019-03-31T09:16:36.622Z,27.16
2019-03-31T09:19:09.255Z,27.48
2019-03-31T09:21:42.389Z,26.94
2019-03-31T09:24:15.456Z,26.41
2019-03-31T09:26:52.502Z,27.19
2019-03-31T09:29:25.106Z,27.57
2019-03-31T09:32:02.192Z,27.91
2019-03-31T09:34:34.994Z,28.09
2019-03-31T09:37:18.934Z,28.56
2019-03-31T09:39:51.872Z,28.55
2019-03-31T09:42:24.984Z,29.05
2019-03-31T09:44:57.782Z,29.37
2019-03-31T09:47:38.711Z,28.74
2019-03-31T09:50:17.520Z,28.40
2019-03-31T09:52:51.264Z,28.27
2019-03-31T09:55:24.155Z,28.39
2019-03-31T09:58:00.001Z,28.43
2019-03-31T10:00:51.128Z,29.07
2019-03-31T10:03:24.443Z,29.17
2019-03-31T10:06:09.997Z,29.25
2019-03-31T10:08:31.854Z,27.09
2019-03-31T10:11:05.335Z,26.33
2019-03-31T10:13:38.930Z,27.08
2019-03-31T10:16:11.791Z,28.07
2019-03-31T10:18:44.615Z,29.28
2019-03-31T10:21:17.514Z,27.96
2019-03-31T10:23:50.608Z,28.03
2019-03-31T10:26:31.745Z,28.66
2019-03-31T10:29:01.031Z,29.32
2019-03-31T10:31:34.748Z,29.63
2019-03-31T10:34:15.094Z,30.27
2019-03-31T10:36:48.994Z,30.22
2019-03-31T10:39:22.787Z,30.14
2019-03-31T10:41:57.262Z,30.68
2019-03-31T10:44:30.440Z,31.09
2019-03-31T10:47:03.400Z,31.84
2019-03-31T10:49:40.065Z,31.99
2019-03-31T10:52:13.385Z,31.47
2019-03-31T10:54:47.057Z,31.57
2019-03-31T10:57:19.815Z,31.67
2019-03-31T11:00:00.588Z,31.81
2019-03-31T11:02:33.643Z,31.75
2019-03-31T11:05:12.759Z,31.07
2019-03-31T11:07:45.552Z,31.73
2019-03-31T11:10:21.306Z,30.99
2019-03-31T11:12:54.410Z,30.68
2019-03-31T11:15:31.157Z,30.21
2019-03-31T11:18:05.326Z,30.56
2019-03-31T11:20:43.893Z,30.86
2019-03-31T11:23:24.669Z,31.40
2019-03-31T11:25:57.477Z,32.11
2019-03-31T11:28:30.837Z,31.97
2019-03-31T11:31:03.272Z,32.11
2019-03-31T11:33:35.753Z,32.75
2019-03-31T11:36:15.632Z,33.00
2019-03-31T11:38:48.461Z,32.87
2019-03-31T11:41:21.157Z,32.67
2019-03-31T11:43:58.018Z,29.67
2019-03-31T11:46:32.425Z,29.64
2019-03-31T11:49:05.114Z,30.42
2019-03-31T11:51:40.925Z,30.91
2019-03-31T11:54:13.712Z,31.47
2019-03-31T11:56:51.128Z,31.96
2019-03-31T11:59:23.590Z,32.08
2019-03-31T12:02:04.941Z,32.34
2019-03-31T12:04:37.597Z,32.07
2019-03-31T12:07:27.764Z,32.43
2019-03-31T12:09:52.934Z,30.75
2019-03-31T12:12:28.421Z,29.80
2019-03-31T12:15:01.481Z,30.86
2019-03-31T12:17:34.672Z,31.55
2019-03-31T12:20:08.485Z,31.92
2019-03-31T12:22:50.891Z,32.09
2019-03-31T12:25:23.593Z,32.42
2019-03-31T12:27:56.807Z,32.15
2019-03-31T12:30:33.561Z,32.24
2019-03-31T12:33:07.081Z,32.56
2019-03-31T12:35:39.761Z,32.78
2019-03-31T12:38:18.821Z,32.67
2019-03-31T12:40:52.481Z,32.14
2019-03-31T12:43:31.571Z,31.57
2019-03-31T12:46:04.272Z,30.93
2019-03-31T12:48:41.539Z,30.02
2019-03-31T12:51:15.419Z,30.37
2019-03-31T12:53:51.162Z,30.48
2019-03-31T12:56:22.900Z,30.57
2019-03-31T12:58:58.556Z,30.61
2019-03-31T13:01:31.433Z,30.41
2019-03-31T13:04:07.389Z,30.51
2019-03-31T13:06:41.079Z,30.08
2019-03-31T13:09:23.940Z,29.90
2019-03-31T13:11:57.963Z,30.40
2019-03-31T13:14:30.718Z,30.84
2019-03-31T13:17:03.550Z,31.38
2019-03-31T13:19:41.211Z,31.48
2019-03-31T13:22:14.675Z,31.54
2019-03-31T13:24:55.248Z,31.42
2019-03-31T13:27:28.089Z,31.22
2019-03-31T13:30:04.525Z,30.52
2019-03-31T13:32:39.041Z,30.55
2019-03-31T13:35:11.931Z,29.85
2019-03-31T13:37:45.023Z,29.88
2019-03-31T13:40:24.332Z,29.77
2019-03-31T13:42:57.840Z,29.90
2019-03-31T13:45:34.119Z,30.52
2019-03-31T13:48:06.902Z,30.93
2019-03-31T13:50:40.510Z,31.21
2019-03-31T13:53:16.152Z,31.40
2019-03-31T13:55:50.814Z,31.57
2019-03-31T13:58:23.943Z,30.38
2019-03-31T14:01:01.490Z,30.81
2019-03-31T14:03:34.139Z,30.63
2019-03-31T14:06:14.110Z,30.05
2019-03-31T14:08:46.791Z,29.98
2019-03-31T14:11:21.646Z,29.93
2019-03-31T14:13:56.183Z,29.86
2019-03-31T14:16:37.014Z,29.84
2019-03-31T14:19:12.919Z,29.98
2019-03-31T14:21:47.132Z,30.28
2019-03-31T14:24:19.549Z,30.38
2019-03-31T14:26:56.873Z,30.53
2019-03-31T14:29:29.669Z,30.62
2019-03-31T14:32:02.453Z,30.03
2019-03-31T14:34:35.221Z,29.69
2019-03-31T14:37:25.506Z,29.92
2019-03-31T14:39:58.664Z,29.91
2019-03-31T14:42:31.388Z,29.38
2019-03-31T14:45:04.444Z,29.47
2019-03-31T14:47:40.011Z,29.05
2019-03-31T14:50:18.698Z,29.05
2019-03-31T14:52:51.492Z,29.26
2019-03-31T14:55:24.056Z,28.87
2019-03-31T14:58:00.132Z,29.00
2019-03-31T15:00:33.808Z,28.96
2019-03-31T15:03:06.986Z,28.29
2019-03-31T15:05:39.485Z,27.00
2019-03-31T15:08:15.594Z,27.41
2019-03-31T15:10:49.379Z,27.40
2019-03-31T15:13:25.012Z,27.74
2019-03-31T15:15:57.850Z,27.90
2019-03-31T15:18:39.614Z,27.88
2019-03-31T15:21:12.325Z,27.64
2019-03-31T15:23:45.565Z,27.24
2019-03-31T15:26:18.798Z,27.21
2019-03-31T15:28:55.830Z,27.39
2019-03-31T15:31:28.486Z,27.61
2019-03-31T15:34:10.057Z,27.63
2019-03-31T15:36:44.923Z,27.59
2019-03-31T15:39:18.288Z,27.49
2019-03-31T15:41:51.022Z,27.41
2019-03-31T15:44:34.455Z,27.22
2019-03-31T15:47:10.577Z,26.77
2019-03-31T15:49:43.259Z,26.54
2019-03-31T15:52:22.527Z,26.24
2019-03-31T15:54:55.515Z,26.04
2019-03-31T15:57:29.713Z,25.76
2019-03-31T16:00:02.435Z,25.66
2019-03-31T16:02:35.153Z,25.62
2019-03-31T16:05:08.717Z,25.73
2019-03-31T16:07:42.796Z,25.88
2019-03-31T16:10:22.341Z,25.54
2019-03-31T16:12:55.371Z,25.42
2019-03-31T16:15:33.682Z,25.10
2019-03-31T16:18:05.996Z,24.80
2019-03-31T16:20:44.501Z,24.68
2019-03-31T16:23:17.986Z,24.59
2019-03-31T16:25:53.080Z,24.39
2019-03-31T16:28:25.987Z,23.92
2019-03-31T16:31:03.855Z,23.37
2019-03-31T16:33:36.010Z,23.36
2019-03-31T16:36:12.455Z,22.43
2019-03-31T16:38:44.636Z,21.99
2019-03-31T16:41:22.676Z,21.81
2019-03-31T16:43:54.415Z,21.89
2019-03-31T16:46:32.277Z,21.76
2019-03-31T16:49:06.393Z,21.40
2019-03-31T16:51:44.808Z,21.10
2019-03-31T16:54:16.816Z,20.59
2019-03-31T16:56:55.453Z,20.49
2019-03-31T16:59:28.903Z,20.35
2019-03-31T17:02:05.550Z,20.19
2019-03-31T17:04:37.708Z,20.01
2019-03-31T17:07:18.942Z,19.93
2019-03-31T17:09:52.008Z,19.76
2019-03-31T17:12:28.686Z,19.54
2019-03-31T17:15:08.481Z,19.57
2019-03-31T17:17:40.615Z,19.55
2019-03-31T17:20:16.810Z,19.48
2019-03-31T17:22:48.811Z,19.38
2019-03-31T17:25:20.859Z,19.22
2019-03-31T17:27:53.598Z,19.09
2019-03-31T17:30:26.259Z,18.96
2019-03-31T17:33:09.887Z,18.81
2019-03-31T17:35:41.652Z,18.63
2019-03-31T17:38:14.382Z,18.44
2019-03-31T17:40:46.234Z,18.25
2019-03-31T17:43:18.766Z,18.16
2019-03-31T17:45:50.594Z,18.11
2019-03-31T17:48:23.011Z,17.89
2019-03-31T17:50:55.831Z,17.70
2019-03-31T17:53:28.554Z,17.55
2019-03-31T17:56:00.899Z,17.32
2019-03-31T17:58:33.669Z,17.12
2019-03-31T18:01:06.930Z,17.09
2019-03-31T18:03:39.462Z,17.03
2019-03-31T18:06:12.234Z,16.99
2019-03-31T18:08:45.079Z,16.94
2019-03-31T18:11:17.362Z,16.84
2019-03-31T18:13:50.030Z,16.77
2019-03-31T18:16:22.525Z,16.66
2019-03-31T18:18:54.734Z,16.51
2019-03-31T18:21:27.978Z,16.36
2019-03-31T18:24:00.205Z,16.20
2019-03-31T18:26:32.404Z,16.04
2019-03-31T18:29:04.510Z,16.02
2019-03-31T18:31:36.839Z,16.10
2019-03-31T18:34:08.869Z,16.02
2019-03-31T18:36:41.646Z,15.95
2019-03-31T18:39:13.924Z,15.88
2019-03-31T18:41:46.427Z,15.52
2019-03-31T18:44:18.965Z,15.28
2019-03-31T18:46:51.759Z,15.20
2019-03-31T18:49:23.723Z,15.01
2019-03-31T18:52:02.050Z,14.97
2019-03-31T18:55:11.567Z,14.94
2019-03-31T18:57:54.776Z,14.72
2019-03-31T19:00:57.951Z,14.53
2019-03-31T19:04:01.161Z,14.34
2019-03-31T19:06:48.539Z,14.20
2019-03-31T19:09:30.457Z,14.28
2019-03-31T19:12:19.745Z,14.23
2019-03-31T19:15:11.955Z,14.18
2019-03-31T19:18:04.663Z,14.14
2019-03-31T19:20:54.821Z,14.09
2019-03-31T19:23:45.763Z,14.07
2019-03-31T19:26:48.692Z,14.00
2019-03-31T19:29:42.100Z,14.13
2019-03-31T19:32:26.399Z,14.21
2019-03-31T19:35:16.724Z,14.06
2019-03-31T19:38:13.749Z,13.87
2019-03-31T19:41:09.193Z,13.65
2019-03-31T19:43:58.359Z,13.43
2019-03-31T19:46:50.394Z,13.36
2019-03-31T19:49:50.213Z,13.20
2019-03-31T19:52:52.937Z,13.16
2019-03-31T19:55:35.489Z,13.20
2019-03-31T19:58:17.288Z,13.18
2019-03-31T20:01:17.867Z,13.02
2019-03-31T20:04:15.370Z,12.73
2019-03-31T20:06:58.764Z,12.65
2019-03-31T20:09:52.770Z,12.34
2019-03-31T20:12:38.226Z,12.17
2019-03-31T20:15:29.414Z,12.06
2019-03-31T20:18:26.363Z,11.97
2019-03-31T20:21:31.810Z,11.99
2019-03-31T20:24:21.704Z,11.95
2019-03-31T20:27:12.791Z,11.65
2019-03-31T20:30:09.292Z,11.52
2019-03-31T20:33:00.110Z,11.59
2019-03-31T20:36:06.251Z,11.60
2019-03-31T20:38:57.774Z,11.58
2019-03-31T20:41:58.371Z,11.36
2019-03-31T20:44:30.787Z,11.10
2019-03-31T20:47:02.984Z,10.89
2019-03-31T20:49:35.893Z,10.74
2019-03-31T20:52:08.443Z,10.64
2019-03-31T20:54:40.722Z,10.56
2019-03-31T20:57:13.099Z,10.53
2019-03-31T20:59:45.525Z,10.45
2019-03-31T21:02:19.372Z,10.29
2019-03-31T21:04:51.658Z,10.14
2019-03-31T21:07:35.351Z,10.02
2019-03-31T21:10:07.815Z,9.94
2019-03-31T21:12:40.285Z,9.92
2019-03-31T21:15:13.083Z,9.94
2019-03-31T21:17:45.347Z,9.90
2019-03-31T21:20:17.753Z,9.85
2019-03-31T21:22:50.034Z,9.74
2019-03-31T21:25:22.499Z,9.68
2019-03-31T21:27:55.332Z,9.72
2019-03-31T21:30:27.596Z,9.74
2019-03-31T21:33:00.132Z,9.90
2019-03-31T21:35:32.251Z,9.93
2019-03-31T21:38:04.982Z,9.93
2019-03-31T21:40:37.045Z,9.89
2019-03-31T21:43:09.034Z,9.76
2019-03-31T21:45:41.874Z,9.61
2019-03-31T21:48:14.089Z,9.48
2019-03-31T21:50:47.263Z,9.24
2019-03-31T21:53:19.057Z,9.12
2019-03-31T21:55:51.846Z,8.97
2019-03-31T21:58:23.836Z,8.80
2019-03-31T22:00:59.502Z,8.72
2019-03-31T22:03:31.598Z,8.77
2019-03-31T22:06:04.359Z,8.85
2019-03-31T22:08:36.597Z,8.99
2019-03-31T22:11:09.503Z,9.01
2019-03-31T22:13:42.126Z,8.98
2019-03-31T22:16:14.304Z,8.90
2019-03-31T22:18:46.168Z,8.81
2019-03-31T22:21:18.016Z,8.69
2019-03-31T22:23:57.681Z,8.61
2019-03-31T22:26:23.581Z,8.56
2019-03-31T22:28:55.475Z,8.46
2019-03-31T22:31:27.613Z,8.31
2019-03-31T22:34:02.619Z,8.25
2019-03-31T22:36:35.235Z,8.12
2019-03-31T22:39:24.548Z,8.02
2019-03-31T22:41:57.081Z,7.93
2019-03-31T22:44:29.829Z,7.78
2019-03-31T22:47:02.562Z,7.66
2019-03-31T22:49:39.474Z,7.58
2019-03-31T22:52:11.596Z,7.54
2019-03-31T22:54:43.940Z,7.51
2019-03-31T22:57:16.292Z,7.44
2019-03-31T22:59:51.867Z,7.38
2019-03-31T23:02:24.554Z,7.36
2019-03-31T23:05:11.638Z,7.28
2019-03-31T23:07:44.105Z,7.25
2019-03-31T23:10:23.738Z,7.25
2019-03-31T23:12:52.589Z,7.23
2019-03-31T23:15:33.525Z,7.28
2019-03-31T23:18:05.406Z,7.28
2019-03-31T23:20:37.409Z,7.29
2019-03-31T23:23:09.066Z,7.36
2019-03-31T23:25:41.062Z,7.30
2019-03-31T23:28:13.051Z,7.22
2019-03-31T23:30:44.918Z,7.14
2019-03-31T23:33:18.150Z,6.99
2019-03-31T23:35:53.296Z,6.84
2019-03-31T23:38:25.013Z,6.79
2019-03-31T23:40:57.624Z,6.79
2019-03-31T23:43:29.338Z,6.79
2019-03-31T23:46:02.369Z,6.74
2019-03-31T23:48:34.121Z,6.60
2019-03-31T23:51:06.462Z,6.42
2019-03-31T23:53:38.248Z,6.25
2019-03-31T23:56:10.498Z,6.11
2019-03-31T23:58:42.105Z,6.05
